createdAt,value
2023-02-17T00:00:04.804Z,0.00
2023-02-17T00:01:04.827Z,0.00
2023-02-17T00:02:04.779Z,0.00
2023-02-17T00:03:04.740Z,0.00
2023-02-17T00:04:04.753Z,0.00
2023-02-17T00:05:04.733Z,0.00
2023-02-17T00:06:05.288Z,0.00
2023-02-17T00:07:04.703Z,0.00
2023-02-17T00:08:04.700Z,0.00
2023-02-17T00:09:04.683Z,0.00
2023-02-17T00:10:04.745Z,0.00
2023-02-17T00:11:04.674Z,0.00
2023-02-17T00:12:04.799Z,0.00
2023-02-17T00:13:04.632Z,0.00
2023-02-17T00:14:04.651Z,0.00
2023-02-17T00:15:04.623Z,0.00
2023-02-17T00:16:05.018Z,0.00
2023-02-17T00:17:04.651Z,0.00
2023-02-17T00:18:04.606Z,0.00
2023-02-17T00:19:04.578Z,0.00
2023-02-17T00:20:04.568Z,0.00
2023-02-17T00:21:04.558Z,0.00
2023-02-17T00:22:04.642Z,0.00
2023-02-17T00:23:04.606Z,0.00
2023-02-17T00:24:04.539Z,0.00
2023-02-17T00:25:04.504Z,0.00
2023-02-17T00:26:04.909Z,0.00
2023-02-17T00:27:04.558Z,0.00
2023-02-17T00:28:04.478Z,0.00
2023-02-17T00:29:04.483Z,0.00
2023-02-17T00:30:04.494Z,0.00
2023-02-17T00:31:04.546Z,0.00
2023-02-17T00:32:04.591Z,0.00
2023-02-17T00:33:04.467Z,0.00
2023-02-17T00:34:04.433Z,0.00
2023-02-17T00:35:04.416Z,0.00
2023-02-17T00:36:04.721Z,0.00
2023-02-17T00:37:04.409Z,0.00
2023-02-17T00:38:04.410Z,0.00
2023-02-17T00:39:04.401Z,0.00
2023-02-17T00:40:04.372Z,0.00
2023-02-17T00:41:04.348Z,0.00
2023-02-17T00:42:04.339Z,0.00
2023-02-17T00:43:04.329Z,0.00
2023-02-17T00:44:04.346Z,0.00
2023-02-17T00:45:04.343Z,0.00
2023-02-17T00:46:04.737Z,0.00
2023-02-17T00:47:04.302Z,0.00
2023-02-17T00:48:04.282Z,0.00
2023-02-17T00:49:04.305Z,0.00
2023-02-17T00:50:04.258Z,0.00
2023-02-17T00:51:04.308Z,0.00
2023-02-17T00:52:04.259Z,0.00
2023-02-17T00:53:04.230Z,0.00
2023-02-17T00:54:04.286Z,0.00
2023-02-17T00:55:04.201Z,0.00
2023-02-17T00:56:04.497Z,0.00
2023-02-17T00:57:04.196Z,0.00
2023-02-17T00:58:04.204Z,0.00
2023-02-17T00:59:04.177Z,0.00
2023-02-17T01:00:04.175Z,0.00
2023-02-17T01:01:04.160Z,0.00
2023-02-17T01:02:04.179Z,0.00
2023-02-17T01:03:04.136Z,0.00
2023-02-17T01:04:04.139Z,0.00
2023-02-17T01:05:04.158Z,0.00
2023-02-17T01:06:04.428Z,0.00
2023-02-17T01:07:04.076Z,0.00
2023-02-17T01:08:04.132Z,0.00
2023-02-17T01:09:04.050Z,0.00
2023-02-17T01:10:04.078Z,0.00
2023-02-17T01:11:04.034Z,0.00
2023-02-17T01:12:04.063Z,0.00
2023-02-17T01:13:04.027Z,0.00
2023-02-17T01:14:04.042Z,0.00
2023-02-17T01:15:03.998Z,0.00
2023-02-17T01:16:04.374Z,0.00
2023-02-17T01:17:03.982Z,0.00
2023-02-17T01:18:03.974Z,0.00
2023-02-17T01:19:03.974Z,0.00
2023-02-17T01:20:04.038Z,0.00
2023-02-17T01:21:03.945Z,0.00
2023-02-17T01:22:03.955Z,0.00
2023-02-17T01:23:03.943Z,0.00
2023-02-17T01:24:03.907Z,0.00
2023-02-17T01:25:03.916Z,0.00
2023-02-17T01:26:04.312Z,0.00
2023-02-17T01:27:03.882Z,0.00
2023-02-17T01:28:03.905Z,0.00
2023-02-17T01:29:03.882Z,0.00
2023-02-17T01:30:03.903Z,0.00
2023-02-17T01:31:03.946Z,0.00
2023-02-17T01:32:03.855Z,0.00
2023-02-17T01:33:03.848Z,0.00
2023-02-17T01:34:03.871Z,0.00
2023-02-17T01:35:03.832Z,0.00
2023-02-17T01:36:04.314Z,0.00
2023-02-17T01:37:03.861Z,0.00
2023-02-17T01:38:03.811Z,0.00
2023-02-17T01:39:03.757Z,0.00
2023-02-17T01:40:03.743Z,0.00
2023-02-17T01:41:03.825Z,0.00
2023-02-17T01:42:03.755Z,0.00
2023-02-17T01:43:03.752Z,0.00
2023-02-17T01:44:03.707Z,0.00
2023-02-17T01:45:03.723Z,0.00
2023-02-17T01:46:03.880Z,0.00
2023-02-17T01:47:03.708Z,0.00
2023-02-17T01:48:03.693Z,0.00
2023-02-17T01:49:03.652Z,0.00
2023-02-17T01:50:03.650Z,0.00
2023-02-17T01:51:03.625Z,0.00
2023-02-17T01:52:03.677Z,0.00
2023-02-17T01:53:03.603Z,0.00
2023-02-17T01:54:03.602Z,0.00
2023-02-17T01:55:03.580Z,0.00
2023-02-17T01:56:03.833Z,0.00
2023-02-17T01:57:03.598Z,0.00
2023-02-17T01:58:03.594Z,0.00
2023-02-17T01:59:03.593Z,0.00
2023-02-17T02:00:03.542Z,0.00
2023-02-17T02:01:03.530Z,0.00
2023-02-17T02:02:03.596Z,0.00
2023-02-17T02:03:03.605Z,0.00
2023-02-17T02:04:03.503Z,0.00
2023-02-17T02:05:03.474Z,0.00
2023-02-17T02:06:03.746Z,0.00
2023-02-17T02:07:03.460Z,0.00
2023-02-17T02:08:03.480Z,0.00
2023-02-17T02:09:03.456Z,0.00
2023-02-17T02:10:03.445Z,0.00
2023-02-17T02:11:03.464Z,0.00
2023-02-17T02:12:03.427Z,0.00
2023-02-17T02:13:03.404Z,0.00
2023-02-17T02:14:03.434Z,0.00
2023-02-17T02:15:03.392Z,0.00
2023-02-17T02:16:03.645Z,0.00
2023-02-17T02:17:03.436Z,0.00
2023-02-17T02:18:03.402Z,0.00
2023-02-17T02:19:03.339Z,0.00
2023-02-17T02:20:03.344Z,0.00
2023-02-17T02:21:03.360Z,0.00
2023-02-17T02:22:03.305Z,0.00
2023-02-17T02:23:03.314Z,0.00
2023-02-17T02:24:03.297Z,0.00
2023-02-17T02:25:03.275Z,0.00
2023-02-17T02:26:03.421Z,0.00
2023-02-17T02:27:03.254Z,0.00
2023-02-17T02:28:03.312Z,0.00
2023-02-17T02:29:03.347Z,0.00
2023-02-17T02:30:03.307Z,0.00
2023-02-17T02:31:03.249Z,0.00
2023-02-17T02:32:03.243Z,0.00
2023-02-17T02:33:03.210Z,0.00
2023-02-17T02:34:03.217Z,0.00
2023-02-17T02:35:03.183Z,0.00
2023-02-17T02:36:03.405Z,0.00
2023-02-17T02:37:03.159Z,0.00
2023-02-17T02:38:04.924Z,0.00
2023-02-17T02:39:03.137Z,0.00
2023-02-17T02:40:03.154Z,0.00
2023-02-17T02:41:03.118Z,0.00
2023-02-17T02:42:03.103Z,0.00
2023-02-17T02:43:03.095Z,0.00
2023-02-17T02:44:03.082Z,0.00
2023-02-17T02:45:03.117Z,0.00
2023-02-17T02:46:03.189Z,0.00
2023-02-17T02:47:03.133Z,0.00
2023-02-17T02:48:03.062Z,0.00
2023-02-17T02:49:03.028Z,0.00
2023-02-17T02:50:03.057Z,0.00
2023-02-17T02:51:03.018Z,0.00
2023-02-17T02:52:02.999Z,0.00
2023-02-17T02:53:03.021Z,0.00
2023-02-17T02:54:03.410Z,0.00
2023-02-17T02:55:02.993Z,0.00
2023-02-17T02:56:02.986Z,0.00
2023-02-17T02:57:03.000Z,0.00
2023-02-17T02:58:02.943Z,0.00
2023-02-17T02:59:02.947Z,0.00
2023-02-17T03:00:02.919Z,0.00
2023-02-17T03:01:02.974Z,0.00
2023-02-17T03:02:02.937Z,0.00
2023-02-17T03:03:02.901Z,0.00
2023-02-17T03:04:02.969Z,0.00
2023-02-17T03:05:02.863Z,0.00
2023-02-17T03:06:02.868Z,0.00
2023-02-17T03:07:02.846Z,0.00
2023-02-17T03:08:02.843Z,0.00
2023-02-17T03:09:02.841Z,0.00
2023-02-17T03:10:02.854Z,0.00
2023-02-17T03:11:02.804Z,0.00
2023-02-17T03:12:02.778Z,0.00
2023-02-17T03:13:02.798Z,0.00
2023-02-17T03:14:02.841Z,0.00
2023-02-17T03:15:02.770Z,0.00
2023-02-17T03:16:02.811Z,0.00
2023-02-17T03:17:02.760Z,0.00
2023-02-17T03:18:02.763Z,0.00
2023-02-17T03:19:02.794Z,0.00
2023-02-17T03:20:02.717Z,0.00
2023-02-17T03:21:02.706Z,0.00
2023-02-17T03:22:02.709Z,0.00
2023-02-17T03:23:02.679Z,0.00
2023-02-17T03:24:02.672Z,0.00
2023-02-17T03:25:02.654Z,0.00
2023-02-17T03:26:02.805Z,0.00
2023-02-17T03:27:02.718Z,0.00
2023-02-17T03:28:02.628Z,0.00
2023-02-17T03:29:02.654Z,0.00
2023-02-17T03:30:02.720Z,0.00
2023-02-17T03:31:02.619Z,0.00
2023-02-17T03:32:02.671Z,0.00
2023-02-17T03:33:02.578Z,0.00
2023-02-17T03:34:02.591Z,0.00
2023-02-17T03:35:02.553Z,0.00
2023-02-17T03:36:02.545Z,0.00
2023-02-17T03:37:02.566Z,0.00
2023-02-17T03:38:02.603Z,0.00
2023-02-17T03:39:02.565Z,0.00
2023-02-17T03:40:02.496Z,0.00
2023-02-17T03:41:02.526Z,0.00
2023-02-17T03:42:02.513Z,0.00
2023-02-17T03:43:02.509Z,0.00
2023-02-17T03:44:02.536Z,0.00
2023-02-17T03:45:02.484Z,0.00
2023-02-17T03:46:02.468Z,0.00
2023-02-17T03:47:02.432Z,0.00
2023-02-17T03:48:02.524Z,0.00
2023-02-17T03:49:02.417Z,0.00
2023-02-17T03:50:02.616Z,0.00
2023-02-17T03:51:02.384Z,0.00
2023-02-17T03:52:02.418Z,0.00
2023-02-17T03:53:02.376Z,0.00
2023-02-17T03:54:02.356Z,0.00
2023-02-17T03:55:02.394Z,0.00
2023-02-17T03:56:02.987Z,0.00
2023-02-17T03:57:02.329Z,0.00
2023-02-17T03:58:02.318Z,0.00
2023-02-17T03:59:02.314Z,0.00
2023-02-17T04:00:02.323Z,0.00
2023-02-17T04:01:02.429Z,0.00
2023-02-17T04:02:02.269Z,0.00
2023-02-17T04:03:02.261Z,0.00
2023-02-17T04:04:02.297Z,0.00
2023-02-17T04:05:02.265Z,0.00
2023-02-17T04:06:02.284Z,0.00
2023-02-17T04:07:02.313Z,0.00
2023-02-17T04:08:02.203Z,0.00
2023-02-17T04:09:02.208Z,0.00
2023-02-17T04:10:04.638Z,0.00
2023-02-17T04:11:02.231Z,0.00
2023-02-17T04:12:02.166Z,0.00
2023-02-17T04:13:02.194Z,0.00
2023-02-17T04:14:02.155Z,0.00
2023-02-17T04:15:02.188Z,0.00
2023-02-17T04:16:02.204Z,0.00
2023-02-17T04:17:02.137Z,0.00
2023-02-17T04:18:02.149Z,0.00
2023-02-17T04:19:09.620Z,0.00
2023-02-17T04:20:02.084Z,0.00
2023-02-17T04:21:02.096Z,0.00
2023-02-17T04:22:02.083Z,0.00
2023-02-17T04:23:02.074Z,0.00
2023-02-17T04:24:02.120Z,0.00
2023-02-17T04:25:02.058Z,0.00
2023-02-17T04:26:02.020Z,0.00
2023-02-17T04:27:02.019Z,0.00
2023-02-17T04:28:02.018Z,0.00
2023-02-17T04:29:02.043Z,0.00
2023-02-17T04:30:02.078Z,0.00
2023-02-17T04:31:02.156Z,0.00
2023-02-17T04:32:02.119Z,0.00
2023-02-17T04:33:01.967Z,0.00
2023-02-17T04:34:02.008Z,0.00
2023-02-17T04:35:01.940Z,0.00
2023-02-17T04:36:01.919Z,0.00
2023-02-17T04:37:01.923Z,0.00
2023-02-17T04:38:01.917Z,0.00
2023-02-17T04:39:01.908Z,0.00
2023-02-17T04:40:01.934Z,0.00
2023-02-17T04:41:01.896Z,0.00
2023-02-17T04:42:01.956Z,0.00
2023-02-17T04:43:01.850Z,0.00
2023-02-17T04:44:01.932Z,0.00
2023-02-17T04:45:01.842Z,0.00
2023-02-17T04:46:01.891Z,0.00
2023-02-17T04:47:01.812Z,0.00
2023-02-17T04:48:01.863Z,0.00
2023-02-17T04:49:01.780Z,0.00
2023-02-17T04:50:01.894Z,0.00
2023-02-17T04:51:01.770Z,0.00
2023-02-17T04:52:01.763Z,0.00
2023-02-17T04:53:01.780Z,0.00
2023-02-17T04:54:01.755Z,0.00
2023-02-17T04:55:01.811Z,0.00
2023-02-17T04:56:01.713Z,0.00
2023-02-17T04:57:01.707Z,0.00
2023-02-17T04:58:01.719Z,0.00
2023-02-17T04:59:01.675Z,0.00
2023-02-17T05:00:01.713Z,0.00
2023-02-17T05:01:01.679Z,0.00
2023-02-17T05:02:01.651Z,0.00
2023-02-17T05:03:01.669Z,0.00
2023-02-17T05:04:01.625Z,0.00
2023-02-17T05:05:01.709Z,0.00
2023-02-17T05:06:01.622Z,0.00
2023-02-17T05:07:01.599Z,0.00
2023-02-17T05:08:01.623Z,0.00
2023-02-17T05:09:01.608Z,0.00
2023-02-17T05:10:01.607Z,0.00
2023-02-17T05:11:01.555Z,0.00
2023-02-17T05:12:01.554Z,0.00
2023-02-17T05:13:01.538Z,0.00
2023-02-17T05:14:01.525Z,0.00
2023-02-17T05:15:01.545Z,0.00
2023-02-17T05:16:01.580Z,0.00
2023-02-17T05:17:01.543Z,0.00
2023-02-17T05:18:01.478Z,0.00
2023-02-17T05:19:01.477Z,0.00
2023-02-17T05:20:01.490Z,0.00
2023-02-17T05:21:01.463Z,0.00
2023-02-17T05:22:01.439Z,0.00
2023-02-17T05:23:01.434Z,0.00
2023-02-17T05:24:01.423Z,0.00
2023-02-17T05:25:01.419Z,0.00
2023-02-17T05:26:01.458Z,0.00
2023-02-17T05:27:01.388Z,0.00
2023-02-17T05:28:01.400Z,0.00
2023-02-17T05:29:01.397Z,0.00
2023-02-17T05:30:01.415Z,0.00
2023-02-17T05:31:01.412Z,0.00
2023-02-17T05:32:01.393Z,0.00
2023-02-17T05:33:01.347Z,0.00
2023-02-17T05:34:01.377Z,0.00
2023-02-17T05:35:01.387Z,0.00
2023-02-17T05:36:01.312Z,0.00
2023-02-17T05:37:01.280Z,0.00
2023-02-17T05:38:01.299Z,0.00
2023-02-17T05:39:01.275Z,0.00
2023-02-17T05:40:01.308Z,0.00
2023-02-17T05:41:01.276Z,0.00
2023-02-17T05:42:01.246Z,0.00
2023-02-17T05:43:01.243Z,0.00
2023-02-17T05:44:01.209Z,0.00
2023-02-17T05:45:01.255Z,0.00
2023-02-17T05:46:01.190Z,0.00
2023-02-17T05:47:01.180Z,0.00
2023-02-17T05:48:01.164Z,0.00
2023-02-17T05:49:01.197Z,0.00
2023-02-17T05:50:01.156Z,0.00
2023-02-17T05:51:01.144Z,0.00
2023-02-17T05:52:01.145Z,0.00
2023-02-17T05:53:01.132Z,0.00
2023-02-17T05:54:01.153Z,0.00
2023-02-17T05:55:01.119Z,0.00
2023-02-17T05:56:01.076Z,0.00
2023-02-17T05:57:01.098Z,0.00
2023-02-17T05:58:01.092Z,0.00
2023-02-17T05:59:01.090Z,0.00
2023-02-17T06:00:01.031Z,0.00
2023-02-17T06:01:01.028Z,0.00
2023-02-17T06:02:01.031Z,0.00
2023-02-17T06:03:01.086Z,0.00
2023-02-17T06:04:01.004Z,0.00
2023-02-17T06:05:01.073Z,0.00
2023-02-17T06:06:00.977Z,0.00
2023-02-17T06:07:01.023Z,0.00
2023-02-17T06:08:00.956Z,0.00
2023-02-17T06:09:00.956Z,0.00
2023-02-17T06:10:00.949Z,0.00
2023-02-17T06:11:00.942Z,0.00
2023-02-17T06:12:00.953Z,0.00
2023-02-17T06:13:00.916Z,0.00
2023-02-17T06:14:00.943Z,0.00
2023-02-17T06:15:00.907Z,0.00
2023-02-17T06:16:00.899Z,0.00
2023-02-17T06:17:05.883Z,0.00
2023-02-17T06:18:00.899Z,0.00
2023-02-17T06:19:00.858Z,0.00
2023-02-17T06:20:00.825Z,0.00
2023-02-17T06:21:00.827Z,0.00
2023-02-17T06:22:00.865Z,0.00
2023-02-17T06:23:00.880Z,0.00
2023-02-17T06:24:00.792Z,0.00
2023-02-17T06:25:00.911Z,0.00
2023-02-17T06:26:00.772Z,0.00
2023-02-17T06:27:00.757Z,0.00
2023-02-17T06:28:00.766Z,0.00
2023-02-17T06:29:00.784Z,0.00
2023-02-17T06:30:00.794Z,0.00
2023-02-17T06:31:00.759Z,0.00
2023-02-17T06:32:00.738Z,0.00
2023-02-17T06:33:00.797Z,0.00
2023-02-17T06:34:01.374Z,0.00
2023-02-17T06:35:00.704Z,0.00
2023-02-17T06:36:00.738Z,0.00
2023-02-17T06:37:00.721Z,0.00
2023-02-17T06:38:00.693Z,0.00
2023-02-17T06:39:00.632Z,0.00
2023-02-17T06:40:01.387Z,0.00
2023-02-17T06:41:00.678Z,0.00
2023-02-17T06:42:00.713Z,0.00
2023-02-17T06:43:01.381Z,0.00
2023-02-17T06:44:00.565Z,0.00
2023-02-17T06:45:01.362Z,0.00
2023-02-17T06:46:00.642Z,0.00
2023-02-17T06:47:00.547Z,0.00
2023-02-17T06:48:00.528Z,0.00
2023-02-17T06:49:00.547Z,0.00
2023-02-17T06:50:00.527Z,0.00
2023-02-17T06:51:00.494Z,0.00
2023-02-17T06:52:00.488Z,0.00
2023-02-17T06:53:00.473Z,0.00
2023-02-17T06:54:00.485Z,0.00
2023-02-17T06:55:00.503Z,0.00
2023-02-17T06:56:00.652Z,0.00
2023-02-17T06:57:00.438Z,0.00
2023-02-17T06:58:00.428Z,0.00
2023-02-17T06:59:00.417Z,0.00
2023-02-17T07:00:00.422Z,0.00
2023-02-17T07:01:00.410Z,0.00
2023-02-17T07:02:02.250Z,0.00
2023-02-17T07:03:00.556Z,0.00
2023-02-17T07:04:00.367Z,0.00
2023-02-17T07:05:00.369Z,0.00
2023-02-17T07:06:00.410Z,0.00
2023-02-17T07:07:00.352Z,0.00
2023-02-17T07:08:00.343Z,0.00
2023-02-17T07:09:00.314Z,0.00
2023-02-17T07:10:00.319Z,0.00
2023-02-17T07:11:00.287Z,0.00
2023-02-17T07:12:00.304Z,0.00
2023-02-17T07:13:00.329Z,0.00
2023-02-17T07:14:00.257Z,0.00
2023-02-17T07:15:00.286Z,0.00
2023-02-17T07:16:00.309Z,0.00
2023-02-17T07:17:04.952Z,0.00
2023-02-17T07:18:00.226Z,0.00
2023-02-17T07:19:00.221Z,0.00
2023-02-17T07:20:00.234Z,0.00
2023-02-17T07:21:00.230Z,0.00
2023-02-17T07:22:00.179Z,0.00
2023-02-17T07:23:00.162Z,0.00
2023-02-17T07:24:00.150Z,0.00
2023-02-17T07:25:00.144Z,0.00
2023-02-17T07:26:00.257Z,0.00
2023-02-17T07:27:00.134Z,0.00
2023-02-17T07:28:00.186Z,0.00
2023-02-17T07:29:00.166Z,0.00
2023-02-17T07:30:00.173Z,0.00
2023-02-17T07:31:00.197Z,0.00
2023-02-17T07:32:00.218Z,0.00
2023-02-17T07:33:00.228Z,0.00
2023-02-17T07:34:00.063Z,0.00
2023-02-17T07:35:00.092Z,0.00
2023-02-17T07:36:00.032Z,0.00
2023-02-17T07:37:00.038Z,0.00
2023-02-17T07:38:00.003Z,0.00
2023-02-17T07:38:59.990Z,0.00
2023-02-17T07:39:59.985Z,0.00
2023-02-17T07:40:59.992Z,0.00
2023-02-17T07:42:00.002Z,0.00
2023-02-17T07:42:59.958Z,0.00
2023-02-17T07:43:59.938Z,0.00
2023-02-17T07:44:59.926Z,0.00
2023-02-17T07:45:59.989Z,0.00
2023-02-17T07:46:59.915Z,0.00
2023-02-17T07:47:59.922Z,0.00
2023-02-17T07:48:59.950Z,0.00
2023-02-17T07:49:59.885Z,0.00
2023-02-17T07:50:59.884Z,0.00
2023-02-17T07:51:59.847Z,0.00
2023-02-17T07:52:59.856Z,0.00
2023-02-17T07:53:59.853Z,0.00
2023-02-17T07:54:59.871Z,0.00
2023-02-17T07:55:59.862Z,0.00
2023-02-17T07:56:59.809Z,0.00
2023-02-17T07:57:59.804Z,0.00
2023-02-17T07:58:59.778Z,0.00
2023-02-17T07:59:59.806Z,0.00
2023-02-17T08:00:59.805Z,0.00
2023-02-17T08:01:59.789Z,0.00
2023-02-17T08:02:59.768Z,0.00
2023-02-17T08:03:59.765Z,0.00
2023-02-17T08:04:59.730Z,0.00
2023-02-17T08:05:59.706Z,0.00
2023-02-17T08:06:59.713Z,0.00
2023-02-17T08:07:59.699Z,0.00
2023-02-17T08:08:59.683Z,0.00
2023-02-17T08:09:59.657Z,0.00
2023-02-17T08:10:59.655Z,0.00
2023-02-17T08:11:59.747Z,0.00
2023-02-17T08:12:59.660Z,0.00
2023-02-17T08:13:59.623Z,0.00
2023-02-17T08:14:59.625Z,0.00
2023-02-17T08:15:59.636Z,0.00
2023-02-17T08:16:59.653Z,0.00
2023-02-17T08:17:59.613Z,0.00
2023-02-17T08:18:59.563Z,0.00
2023-02-17T08:20:05.912Z,0.00
2023-02-17T08:21:00.598Z,0.00
2023-02-17T08:21:59.538Z,0.00
2023-02-17T08:22:59.535Z,0.00
2023-02-17T08:23:59.604Z,0.00
2023-02-17T08:24:59.624Z,0.00
2023-02-17T08:25:59.562Z,0.00
2023-02-17T08:26:59.551Z,0.00
2023-02-17T08:27:59.475Z,0.00
2023-02-17T08:28:59.482Z,0.00
2023-02-17T08:29:59.543Z,0.00
2023-02-17T08:30:59.578Z,0.00
2023-02-17T08:31:59.601Z,0.00
2023-02-17T08:32:59.426Z,0.00
2023-02-17T08:33:59.411Z,0.00
2023-02-17T08:34:59.417Z,0.00
2023-02-17T08:35:59.437Z,0.00
2023-02-17T08:36:59.418Z,0.00
2023-02-17T08:37:59.377Z,0.00
2023-02-17T08:38:59.388Z,0.00
2023-02-17T08:39:59.395Z,0.00
2023-02-17T08:40:59.414Z,0.00
2023-02-17T08:41:59.339Z,0.00
2023-02-17T08:42:59.308Z,0.00
2023-02-17T08:43:59.455Z,0.00
2023-02-17T08:44:59.483Z,0.00
2023-02-17T08:45:59.360Z,0.00
2023-02-17T08:47:10.197Z,0.00
2023-02-17T08:47:59.271Z,0.00
2023-02-17T08:48:59.288Z,0.00
2023-02-17T08:49:59.357Z,0.00
2023-02-17T08:50:59.259Z,0.00
2023-02-17T08:51:59.276Z,0.00
2023-02-17T08:52:59.269Z,0.00
2023-02-17T08:53:59.249Z,0.00
2023-02-17T08:54:59.256Z,0.00
2023-02-17T08:55:59.208Z,0.00
2023-02-17T08:56:59.301Z,0.00
2023-02-17T08:57:59.180Z,0.00
2023-02-17T08:58:59.165Z,0.00
2023-02-17T08:59:59.242Z,0.00
2023-02-17T09:00:59.143Z,0.00
2023-02-17T09:01:59.108Z,0.00
2023-02-17T09:02:59.242Z,0.00
2023-02-17T09:03:59.093Z,0.00
2023-02-17T09:04:59.089Z,0.00
2023-02-17T09:05:59.085Z,0.00
2023-02-17T09:06:59.065Z,0.00
2023-02-17T09:07:59.120Z,0.00
2023-02-17T09:08:59.076Z,0.00
2023-02-17T09:09:59.038Z,0.00
2023-02-17T09:10:59.013Z,0.00
2023-02-17T09:11:59.066Z,0.00
2023-02-17T09:12:59.015Z,0.00
2023-02-17T09:13:59.150Z,0.00
2023-02-17T09:14:58.995Z,0.00
2023-02-17T09:15:59.205Z,0.00
2023-02-17T09:16:58.959Z,0.00
2023-02-17T09:17:58.953Z,0.00
2023-02-17T09:18:58.944Z,0.00
2023-02-17T09:21:16.187Z,0.00
2023-02-17T09:22:30.732Z,0.00
2023-02-17T09:23:17.198Z,0.00
2023-02-17T09:24:16.179Z,0.00
2023-02-17T09:25:16.159Z,0.00
2023-02-17T09:26:16.167Z,0.00
2023-02-17T09:27:16.166Z,0.00
2023-02-17T09:28:16.117Z,0.00
2023-02-17T09:29:16.139Z,0.00
2023-02-17T09:30:16.856Z,0.00
2023-02-17T09:31:16.206Z,0.00
2023-02-17T09:32:16.226Z,0.00
2023-02-17T09:33:16.058Z,0.00
2023-02-17T09:34:16.053Z,0.00
2023-02-17T09:35:16.149Z,0.00
2023-02-17T09:36:16.094Z,0.00
2023-02-17T09:37:16.008Z,0.00
2023-02-17T09:38:16.026Z,0.00
2023-02-17T09:39:16.038Z,0.00
2023-02-17T09:40:16.138Z,0.00
2023-02-17T09:41:15.997Z,0.00
2023-02-17T09:42:16.055Z,0.00
2023-02-17T09:43:16.031Z,0.00
2023-02-17T09:44:15.958Z,0.00
2023-02-17T09:45:15.943Z,0.00
2023-02-17T09:46:16.071Z,0.00
2023-02-17T09:47:15.993Z,0.00
2023-02-17T09:48:15.938Z,0.00
2023-02-17T09:49:15.934Z,0.00
2023-02-17T09:50:15.976Z,0.10
2023-02-17T09:51:15.863Z,0.00
2023-02-17T09:52:15.880Z,0.00
2023-02-17T09:53:15.875Z,0.00
2023-02-17T09:54:15.880Z,0.00
2023-02-17T09:55:15.881Z,0.00
2023-02-17T09:56:15.941Z,0.00
2023-02-17T09:57:15.943Z,0.00
2023-02-17T09:58:15.859Z,0.00
2023-02-17T09:59:15.803Z,0.00
2023-02-17T10:00:15.828Z,0.00
2023-02-17T10:01:15.834Z,0.00
2023-02-17T10:02:15.831Z,0.00
2023-02-17T10:03:17.950Z,0.00
2023-02-17T10:04:16.517Z,0.00
2023-02-17T10:05:15.812Z,0.00
2023-02-17T10:06:16.007Z,0.00
2023-02-17T10:07:15.700Z,0.00
2023-02-17T10:08:15.767Z,0.00
2023-02-17T10:09:15.793Z,0.00
2023-02-17T10:10:15.704Z,0.00
2023-02-17T10:11:15.718Z,0.00
2023-02-17T10:12:15.697Z,0.00
2023-02-17T10:13:15.644Z,0.00
2023-02-17T10:14:15.630Z,0.00
2023-02-17T10:15:17.599Z,0.00
2023-02-17T10:16:15.720Z,0.00
2023-02-17T10:17:15.595Z,0.00
2023-02-17T10:18:15.639Z,0.00
2023-02-17T10:19:15.604Z,0.00
2023-02-17T10:20:15.668Z,0.00
2023-02-17T10:21:15.592Z,0.00
2023-02-17T10:22:15.582Z,0.00
2023-02-17T10:23:15.568Z,0.00
2023-02-17T10:24:15.538Z,0.00
2023-02-17T10:25:15.518Z,0.00
2023-02-17T10:26:15.660Z,0.00
2023-02-17T10:27:15.565Z,0.00
2023-02-17T10:28:15.521Z,0.00
2023-02-17T10:29:15.560Z,0.00
2023-02-17T10:30:15.543Z,0.00
2023-02-17T10:31:15.607Z,0.00
2023-02-17T10:32:17.264Z,0.00
2023-02-17T10:33:15.478Z,0.00
2023-02-17T10:34:15.427Z,0.00
2023-02-17T10:35:15.417Z,0.00
2023-02-17T10:36:15.406Z,0.00
2023-02-17T10:37:15.420Z,0.00
2023-02-17T10:38:15.483Z,0.00
2023-02-17T10:39:15.357Z,0.00
2023-02-17T10:40:15.343Z,0.00
2023-02-17T10:41:15.367Z,0.00
2023-02-17T10:42:15.388Z,0.00
2023-02-17T10:43:15.329Z,0.00
2023-02-17T10:44:15.329Z,0.00
2023-02-17T10:45:15.295Z,0.00
2023-02-17T10:46:15.447Z,0.00
2023-02-17T10:47:15.268Z,0.00
2023-02-17T10:48:15.255Z,0.00
2023-02-17T10:49:15.261Z,0.00
2023-02-17T10:50:15.235Z,0.00
2023-02-17T10:51:15.273Z,0.00
2023-02-17T10:52:15.218Z,0.00
2023-02-17T10:53:15.223Z,0.00
2023-02-17T10:54:15.193Z,0.00
2023-02-17T10:55:22.682Z,0.00
2023-02-17T10:56:16.180Z,0.00
2023-02-17T10:57:15.181Z,0.00
2023-02-17T10:58:15.160Z,0.00
2023-02-17T10:59:15.155Z,0.00
2023-02-17T11:00:15.162Z,0.00
2023-02-17T11:01:15.151Z,0.00
2023-02-17T11:02:15.160Z,0.00
2023-02-17T11:03:15.137Z,0.00
2023-02-17T11:04:15.172Z,0.00
2023-02-17T11:05:15.100Z,0.00
2023-02-17T11:06:15.079Z,0.00
2023-02-17T11:07:15.072Z,0.00
2023-02-17T11:08:15.064Z,0.00
2023-02-17T11:09:15.035Z,0.00
2023-02-17T11:10:15.066Z,0.00
2023-02-17T11:11:15.013Z,0.00
2023-02-17T11:12:15.034Z,0.00
2023-02-17T11:13:14.986Z,0.00
2023-02-17T11:14:15.010Z,0.10
2023-02-17T11:15:14.973Z,0.10
2023-02-17T11:16:15.031Z,0.00
2023-02-17T11:17:15.045Z,0.00
2023-02-17T11:18:14.952Z,0.00
2023-02-17T11:19:14.998Z,0.00
2023-02-17T11:20:14.930Z,0.00
2023-02-17T11:21:14.913Z,0.00
2023-02-17T11:22:14.899Z,0.00
2023-02-17T11:23:14.887Z,0.00
2023-02-17T11:24:14.937Z,0.00
2023-02-17T11:25:14.888Z,0.00
2023-02-17T11:26:14.934Z,0.00
2023-02-17T11:27:14.852Z,0.00
2023-02-17T11:28:14.833Z,0.00
2023-02-17T11:29:14.861Z,0.00
2023-02-17T11:30:14.868Z,0.00
2023-02-17T11:31:14.913Z,0.00
2023-02-17T11:32:14.854Z,0.00
2023-02-17T11:33:14.809Z,0.00
2023-02-17T11:34:14.811Z,0.00
2023-02-17T11:35:14.753Z,0.00
2023-02-17T11:36:14.771Z,0.00
2023-02-17T11:37:14.788Z,0.00
2023-02-17T11:38:14.736Z,0.00
2023-02-17T11:39:14.874Z,0.00
2023-02-17T11:40:14.707Z,0.00
2023-02-17T11:41:14.697Z,0.00
2023-02-17T11:42:14.695Z,0.00
2023-02-17T11:43:14.693Z,0.00
2023-02-17T11:44:14.667Z,0.10
2023-02-17T11:45:14.725Z,0.20
2023-02-17T11:46:14.677Z,0.40
2023-02-17T11:47:14.679Z,0.40
2023-02-17T11:48:14.653Z,0.40
2023-02-17T11:49:14.613Z,0.40
2023-02-17T11:50:14.643Z,0.60
2023-02-17T11:51:14.608Z,0.80
2023-02-17T11:52:14.591Z,0.90
2023-02-17T11:53:14.581Z,0.90
2023-02-17T11:54:14.612Z,1.20
2023-02-17T11:55:14.549Z,0.80
2023-02-17T11:56:14.547Z,0.40
2023-02-17T11:57:14.627Z,0.30
2023-02-17T11:58:14.535Z,0.30
2023-02-17T11:59:14.546Z,0.30
2023-02-17T12:00:14.504Z,0.30
2023-02-17T12:01:14.484Z,0.30
2023-02-17T12:02:14.477Z,0.30
2023-02-17T12:03:14.535Z,0.40
2023-02-17T12:04:14.472Z,0.20
2023-02-17T12:05:14.536Z,0.20
2023-02-17T12:06:14.437Z,0.30
2023-02-17T12:07:14.426Z,0.40
2023-02-17T12:08:14.408Z,0.30
2023-02-17T12:09:14.472Z,0.40
2023-02-17T12:10:14.415Z,0.40
2023-02-17T12:11:14.380Z,0.80
2023-02-17T12:12:14.362Z,0.70
2023-02-17T12:13:14.397Z,0.60
2023-02-17T12:14:14.342Z,0.60
2023-02-17T12:15:14.354Z,0.40
2023-02-17T12:16:14.380Z,0.30
2023-02-17T12:17:14.365Z,0.30
2023-02-17T12:18:14.315Z,0.20
2023-02-17T12:19:14.309Z,0.10
2023-02-17T12:20:14.357Z,0.10
2023-02-17T12:21:14.372Z,0.10
2023-02-17T12:22:14.254Z,0.10
2023-02-17T12:23:14.254Z,0.10
2023-02-17T12:24:14.280Z,0.20
2023-02-17T12:25:14.227Z,0.10
2023-02-17T12:26:14.259Z,0.10
2023-02-17T12:27:14.847Z,0.10
2023-02-17T12:28:14.207Z,0.10
2023-02-17T12:29:14.192Z,0.00
2023-02-17T12:30:14.318Z,0.00
2023-02-17T12:31:14.344Z,0.00
2023-02-17T12:32:14.247Z,0.00
2023-02-17T12:33:14.150Z,0.00
2023-02-17T12:34:14.151Z,0.00
2023-02-17T12:35:14.128Z,0.00
2023-02-17T12:36:14.161Z,0.00
2023-02-17T12:37:14.098Z,0.00
2023-02-17T12:38:14.135Z,0.00
2023-02-17T12:39:14.084Z,0.10
2023-02-17T12:40:14.083Z,0.00
2023-02-17T12:41:14.076Z,0.10
2023-02-17T12:42:14.047Z,0.10
2023-02-17T12:43:14.082Z,0.10
2023-02-17T12:44:14.023Z,0.10
2023-02-17T12:45:14.025Z,0.20
2023-02-17T12:46:14.036Z,0.10
2023-02-17T12:47:18.873Z,0.10
2023-02-17T12:48:13.981Z,0.10
2023-02-17T12:49:13.975Z,0.00
2023-02-17T12:50:13.986Z,0.10
2023-02-17T12:51:14.092Z,0.10
2023-02-17T12:52:13.966Z,0.10
2023-02-17T12:53:13.971Z,0.10
2023-02-17T12:54:13.959Z,0.10
2023-02-17T12:55:13.927Z,0.10
2023-02-17T12:56:13.959Z,0.10
2023-02-17T12:57:13.922Z,0.10
2023-02-17T12:58:13.918Z,0.10
2023-02-17T12:59:13.936Z,0.20
2023-02-17T13:00:13.912Z,0.10
2023-02-17T13:01:13.922Z,0.10
2023-02-17T13:02:13.950Z,0.10
2023-02-17T13:03:13.872Z,0.10
2023-02-17T13:04:13.816Z,0.10
2023-02-17T13:05:13.923Z,0.00
2023-02-17T13:06:13.802Z,0.10
2023-02-17T13:07:13.846Z,0.00
2023-02-17T13:08:13.837Z,0.00
2023-02-17T13:09:13.782Z,0.00
2023-02-17T13:10:13.815Z,0.10
2023-02-17T13:11:13.758Z,0.00
2023-02-17T13:12:13.777Z,0.00
2023-02-17T13:13:13.782Z,0.00
2023-02-17T13:14:13.745Z,0.00
2023-02-17T13:15:13.703Z,0.00
2023-02-17T13:16:34.711Z,0.00
2023-02-17T13:17:34.678Z,0.00
2023-02-17T13:18:13.673Z,0.00
2023-02-17T13:19:13.669Z,0.00